sensor_id;sensor_type;location;lat;lon;timestamp;P1;durP1;ratioP1;P2;durP2;ratioP2
26512;SDS011;14186;53.822;10.152;2023-01-05T00:00:16;22.63;;;2.80;;
26512;SDS011;14186;53.822;10.152;2023-01-05T00:05:16;11.50;;;2.45;;
26512;SDS011;14186;53.822;10.152;2023-01-05T00:10:18;23.35;;;3.03;;
26512;SDS011;14186;53.822;10.152;2023-01-05T00:15:18;19.80;;;3.88;;
26512;SDS011;14186;53.822;10.152;2023-01-05T00:20:19;23.27;;;3.13;;
26512;SDS011;14186;53.822;10.152;2023-01-05T00:25:21;20.95;;;2.97;;
26512;SDS011;14186;53.822;10.152;2023-01-05T00:30:22;12.52;;;3.05;;
26512;SDS011;14186;53.822;10.152;2023-01-05T00:35:22;26.23;;;3.95;;
26512;SDS011;14186;53.822;10.152;2023-01-05T00:40:24;22.83;;;3.40;;
26512;SDS011;14186;53.822;10.152;2023-01-05T00:45:24;20.38;;;2.95;;
26512;SDS011;14186;53.822;10.152;2023-01-05T00:50:24;15.05;;;2.72;;
26512;SDS011;14186;53.822;10.152;2023-01-05T00:55:26;18.50;;;2.72;;
26512;SDS011;14186;53.822;10.152;2023-01-05T01:00:26;31.63;;;3.15;;
26512;SDS011;14186;53.822;10.152;2023-01-05T01:05:26;28.73;;;2.95;;
26512;SDS011;14186;53.822;10.152;2023-01-05T01:10:28;13.40;;;2.28;;
26512;SDS011;14186;53.822;10.152;2023-01-05T01:15:28;24.50;;;3.15;;
26512;SDS011;14186;53.822;10.152;2023-01-05T01:20:28;28.55;;;3.08;;
26512;SDS011;14186;53.822;10.152;2023-01-05T01:25:30;19.75;;;3.10;;
26512;SDS011;14186;53.822;10.152;2023-01-05T01:30:30;17.48;;;2.47;;
26512;SDS011;14186;53.822;10.152;2023-01-05T01:35:30;24.38;;;3.45;;
26512;SDS011;14186;53.822;10.152;2023-01-05T01:40:33;24.85;;;2.90;;
26512;SDS011;14186;53.822;10.152;2023-01-05T01:45:36;24.48;;;4.35;;
26512;SDS011;14186;53.822;10.152;2023-01-05T01:50:37;26.27;;;4.50;;
26512;SDS011;14186;53.822;10.152;2023-01-05T01:55:40;17.83;;;2.83;;
26512;SDS011;14186;53.822;10.152;2023-01-05T02:00:41;18.42;;;3.47;;
26512;SDS011;14186;53.822;10.152;2023-01-05T02:05:41;23.77;;;4.43;;
26512;SDS011;14186;53.822;10.152;2023-01-05T02:10:47;22.10;;;3.20;;
26512;SDS011;14186;53.822;10.152;2023-01-05T02:15:53;22.25;;;2.90;;
26512;SDS011;14186;53.822;10.152;2023-01-05T02:20:59;20.67;;;2.72;;
26512;SDS011;14186;53.822;10.152;2023-01-05T02:31:19;25.20;;;3.10;;
26512;SDS011;14186;53.822;10.152;2023-01-05T02:36:23;24.17;;;2.83;;
26512;SDS011;14186;53.822;10.152;2023-01-05T02:41:24;16.90;;;2.35;;
26512;SDS011;14186;53.822;10.152;2023-01-05T02:46:26;12.43;;;1.83;;
26512;SDS011;14186;53.822;10.152;2023-01-05T02:51:27;21.20;;;2.83;;
26512;SDS011;14186;53.822;10.152;2023-01-05T02:56:30;19.83;;;2.65;;
26512;SDS011;14186;53.822;10.152;2023-01-05T03:01:34;11.80;;;2.00;;
26512;SDS011;14186;53.822;10.152;2023-01-05T03:06:36;20.58;;;2.10;;
26512;SDS011;14186;53.822;10.152;2023-01-05T03:11:38;18.38;;;2.33;;
26512;SDS011;14186;53.822;10.152;2023-01-05T03:16:42;14.13;;;2.95;;
26512;SDS011;14186;53.822;10.152;2023-01-05T03:21:44;17.20;;;2.03;;
26512;SDS011;14186;53.822;10.152;2023-01-05T03:26:45;20.85;;;2.50;;
26512;SDS011;14186;53.822;10.152;2023-01-05T03:31:47;7.93;;;1.63;;
26512;SDS011;14186;53.822;10.152;2023-01-05T03:36:51;14.80;;;2.13;;
26512;SDS011;14186;53.822;10.152;2023-01-05T03:41:52;25.20;;;2.47;;
26512;SDS011;14186;53.822;10.152;2023-01-05T03:46:54;14.77;;;1.90;;
26512;SDS011;14186;53.822;10.152;2023-01-05T03:51:55;15.60;;;2.03;;
26512;SDS011;14186;53.822;10.152;2023-01-05T03:56:55;14.25;;;2.13;;
26512;SDS011;14186;53.822;10.152;2023-01-05T04:01:57;15.55;;;2.00;;
26512;SDS011;14186;53.822;10.152;2023-01-05T04:06:57;13.52;;;1.70;;
26512;SDS011;14186;53.822;10.152;2023-01-05T04:11:57;10.98;;;1.98;;
26512;SDS011;14186;53.822;10.152;2023-01-05T04:16:58;11.07;;;1.45;;
26512;SDS011;14186;53.822;10.152;2023-01-05T04:21:59;12.30;;;1.65;;
26512;SDS011;14186;53.822;10.152;2023-01-05T04:26:59;12.75;;;1.58;;
26512;SDS011;14186;53.822;10.152;2023-01-05T04:32:00;13.48;;;1.67;;
26512;SDS011;14186;53.822;10.152;2023-01-05T04:37:00;13.73;;;1.08;;
26512;SDS011;14186;53.822;10.152;2023-01-05T04:42:01;10.90;;;1.55;;
26512;SDS011;14186;53.822;10.152;2023-01-05T04:47:02;14.40;;;1.98;;
26512;SDS011;14186;53.822;10.152;2023-01-05T04:52:03;9.40;;;1.48;;
26512;SDS011;14186;53.822;10.152;2023-01-05T04:57:03;17.20;;;1.63;;
26512;SDS011;14186;53.822;10.152;2023-01-05T05:02:04;15.98;;;1.52;;
26512;SDS011;14186;53.822;10.152;2023-01-05T05:07:05;15.98;;;2.05;;
26512;SDS011;14186;53.822;10.152;2023-01-05T05:12:05;11.95;;;2.30;;
26512;SDS011;14186;53.822;10.152;2023-01-05T05:17:07;17.88;;;2.85;;
26512;SDS011;14186;53.822;10.152;2023-01-05T05:22:07;15.00;;;1.30;;
26512;SDS011;14186;53.822;10.152;2023-01-05T05:27:07;10.27;;;1.50;;
26512;SDS011;14186;53.822;10.152;2023-01-05T05:32:09;18.13;;;2.65;;
26512;SDS011;14186;53.822;10.152;2023-01-05T05:37:09;15.27;;;1.77;;
26512;SDS011;14186;53.822;10.152;2023-01-05T05:42:09;17.80;;;2.17;;
26512;SDS011;14186;53.822;10.152;2023-01-05T05:47:11;19.35;;;2.10;;
26512;SDS011;14186;53.822;10.152;2023-01-05T05:52:11;18.75;;;2.03;;
26512;SDS011;14186;53.822;10.152;2023-01-05T05:57:11;14.43;;;1.98;;
26512;SDS011;14186;53.822;10.152;2023-01-05T06:02:13;13.80;;;1.83;;
26512;SDS011;14186;53.822;10.152;2023-01-05T06:07:13;15.65;;;2.10;;
26512;SDS011;14186;53.822;10.152;2023-01-05T06:12:13;9.00;;;1.90;;
26512;SDS011;14186;53.822;10.152;2023-01-05T06:17:15;13.50;;;2.10;;
26512;SDS011;14186;53.822;10.152;2023-01-05T06:22:15;13.07;;;1.85;;
26512;SDS011;14186;53.822;10.152;2023-01-05T06:27:15;13.88;;;2.20;;
26512;SDS011;14186;53.822;10.152;2023-01-05T06:32:17;13.93;;;1.63;;
26512;SDS011;14186;53.822;10.152;2023-01-05T06:37:17;14.35;;;1.90;;
26512;SDS011;14186;53.822;10.152;2023-01-05T06:42:17;16.38;;;2.38;;
26512;SDS011;14186;53.822;10.152;2023-01-05T06:47:19;14.52;;;1.85;;
26512;SDS011;14186;53.822;10.152;2023-01-05T06:52:19;14.63;;;2.03;;
26512;SDS011;14186;53.822;10.152;2023-01-05T06:57:19;17.67;;;3.13;;
26512;SDS011;14186;53.822;10.152;2023-01-05T07:02:21;11.43;;;3.13;;
26512;SDS011;14186;53.822;10.152;2023-01-05T07:07:21;11.15;;;1.45;;
26512;SDS011;14186;53.822;10.152;2023-01-05T07:12:21;18.00;;;2.60;;
26512;SDS011;14186;53.822;10.152;2023-01-05T07:17:22;14.80;;;2.15;;
26512;SDS011;14186;53.822;10.152;2023-01-05T07:22:23;11.88;;;1.60;;
26512;SDS011;14186;53.822;10.152;2023-01-05T07:27:23;18.05;;;1.85;;
26512;SDS011;14186;53.822;10.152;2023-01-05T07:32:24;11.73;;;1.60;;
26512;SDS011;14186;53.822;10.152;2023-01-05T07:37:25;12.52;;;1.85;;
26512;SDS011;14186;53.822;10.152;2023-01-05T07:42:25;15.70;;;2.53;;
26512;SDS011;14186;53.822;10.152;2023-01-05T07:47:26;17.13;;;2.53;;
26512;SDS011;14186;53.822;10.152;2023-01-05T07:52:27;12.82;;;1.75;;
26512;SDS011;14186;53.822;10.152;2023-01-05T07:57:27;12.18;;;1.48;;
26512;SDS011;14186;53.822;10.152;2023-01-05T08:02:29;13.65;;;1.17;;
26512;SDS011;14186;53.822;10.152;2023-01-05T08:07:29;17.35;;;2.33;;
26512;SDS011;14186;53.822;10.152;2023-01-05T08:12:29;13.82;;;1.52;;
26512;SDS011;14186;53.822;10.152;2023-01-05T08:17:31;7.93;;;1.48;;
26512;SDS011;14186;53.822;10.152;2023-01-05T08:22:31;12.88;;;1.30;;
26512;SDS011;14186;53.822;10.152;2023-01-05T08:27:32;8.30;;;1.30;;
26512;SDS011;14186;53.822;10.152;2023-01-05T08:32:34;15.10;;;3.50;;
26512;SDS011;14186;53.822;10.152;2023-01-05T08:37:34;15.55;;;1.92;;
26512;SDS011;14186;53.822;10.152;2023-01-05T08:42:34;10.95;;;1.40;;
26512;SDS011;14186;53.822;10.152;2023-01-05T08:47:35;5.20;;;1.13;;
26512;SDS011;14186;53.822;10.152;2023-01-05T08:52:36;4.70;;;0.43;;
26512;SDS011;14186;53.822;10.152;2023-01-05T08:57:36;8.75;;;0.95;;
26512;SDS011;14186;53.822;10.152;2023-01-05T09:02:38;6.88;;;1.10;;
26512;SDS011;14186;53.822;10.152;2023-01-05T09:07:38;10.32;;;1.38;;
26512;SDS011;14186;53.822;10.152;2023-01-05T09:12:38;3.88;;;0.75;;
26512;SDS011;14186;53.822;10.152;2023-01-05T09:17:40;7.75;;;1.00;;
26512;SDS011;14186;53.822;10.152;2023-01-05T09:22:40;5.75;;;0.90;;
26512;SDS011;14186;53.822;10.152;2023-01-05T09:27:40;4.55;;;0.70;;
26512;SDS011;14186;53.822;10.152;2023-01-05T09:32:42;9.35;;;1.02;;
26512;SDS011;14186;53.822;10.152;2023-01-05T09:37:42;7.97;;;0.65;;
26512;SDS011;14186;53.822;10.152;2023-01-05T09:42:42;7.00;;;1.00;;
26512;SDS011;14186;53.822;10.152;2023-01-05T09:47:45;1.75;;;0.50;;
26512;SDS011;14186;53.822;10.152;2023-01-05T09:52:45;3.25;;;0.80;;
26512;SDS011;14186;53.822;10.152;2023-01-05T09:57:47;9.40;;;0.63;;
26512;SDS011;14186;53.822;10.152;2023-01-05T10:02:52;4.05;;;0.70;;
26512;SDS011;14186;53.822;10.152;2023-01-05T10:07:54;9.80;;;1.10;;
26512;SDS011;14186;53.822;10.152;2023-01-05T10:12:57;6.20;;;0.98;;
26512;SDS011;14186;53.822;10.152;2023-01-05T10:18:00;6.15;;;1.23;;
26512;SDS011;14186;53.822;10.152;2023-01-05T10:23:03;6.53;;;0.77;;
26512;SDS011;14186;53.822;10.152;2023-01-05T10:28:10;5.20;;;0.75;;
26512;SDS011;14186;53.822;10.152;2023-01-05T10:33:17;4.07;;;0.80;;
26512;SDS011;14186;53.822;10.152;2023-01-05T10:38:21;4.75;;;0.60;;
26512;SDS011;14186;53.822;10.152;2023-01-05T10:43:32;9.13;;;1.90;;
26512;SDS011;14186;53.822;10.152;2023-01-05T10:48:37;5.57;;;0.82;;
26512;SDS011;14186;53.822;10.152;2023-01-05T10:53:38;3.00;;;0.73;;
26512;SDS011;14186;53.822;10.152;2023-01-05T10:58:39;7.68;;;1.42;;
26512;SDS011;14186;53.822;10.152;2023-01-05T11:03:43;6.60;;;1.00;;
26512;SDS011;14186;53.822;10.152;2023-01-05T11:08:44;8.60;;;0.70;;
26512;SDS011;14186;53.822;10.152;2023-01-05T11:13:45;4.32;;;0.77;;
26512;SDS011;14186;53.822;10.152;2023-01-05T11:18:48;7.78;;;0.60;;
26512;SDS011;14186;53.822;10.152;2023-01-05T11:23:49;7.53;;;0.80;;
26512;SDS011;14186;53.822;10.152;2023-01-05T11:28:55;3.70;;;0.82;;
26512;SDS011;14186;53.822;10.152;2023-01-05T11:33:57;4.22;;;0.77;;
26512;SDS011;14186;53.822;10.152;2023-01-05T11:38:57;8.13;;;1.10;;
26512;SDS011;14186;53.822;10.152;2023-01-05T11:43:58;7.83;;;1.30;;
26512;SDS011;14186;53.822;10.152;2023-01-05T11:48:59;8.15;;;0.90;;
26512;SDS011;14186;53.822;10.152;2023-01-05T11:53:59;6.90;;;1.10;;
26512;SDS011;14186;53.822;10.152;2023-01-05T11:59:00;6.28;;;0.60;;
26512;SDS011;14186;53.822;10.152;2023-01-05T12:04:06;10.10;;;2.38;;
26512;SDS011;14186;53.822;10.152;2023-01-05T12:09:11;9.32;;;0.88;;
26512;SDS011;14186;53.822;10.152;2023-01-05T12:14:17;8.48;;;0.80;;
26512;SDS011;14186;53.822;10.152;2023-01-05T12:19:26;8.02;;;1.02;;
26512;SDS011;14186;53.822;10.152;2023-01-05T12:24:34;4.75;;;0.93;;
26512;SDS011;14186;53.822;10.152;2023-01-05T12:29:40;6.47;;;0.90;;
26512;SDS011;14186;53.822;10.152;2023-01-05T12:34:53;6.15;;;0.93;;
26512;SDS011;14186;53.822;10.152;2023-01-05T12:40:02;6.85;;;1.02;;
26512;SDS011;14186;53.822;10.152;2023-01-05T12:50:24;8.18;;;1.35;;
26512;SDS011;14186;53.822;10.152;2023-01-05T12:55:27;5.60;;;1.08;;
26512;SDS011;14186;53.822;10.152;2023-01-05T13:00:28;8.70;;;1.10;;
26512;SDS011;14186;53.822;10.152;2023-01-05T13:05:33;5.20;;;0.88;;
26512;SDS011;14186;53.822;10.152;2023-01-05T13:10:40;5.15;;;0.68;;
26512;SDS011;14186;53.822;10.152;2023-01-05T13:15:45;5.70;;;1.48;;
26512;SDS011;14186;53.822;10.152;2023-01-05T13:20:54;8.63;;;1.10;;
26512;SDS011;14186;53.822;10.152;2023-01-05T13:25:55;9.32;;;0.95;;
26512;SDS011;14186;53.822;10.152;2023-01-05T13:31:09;4.13;;;0.63;;
26512;SDS011;14186;53.822;10.152;2023-01-05T13:36:16;3.25;;;0.60;;
26512;SDS011;14186;53.822;10.152;2023-01-05T13:41:23;7.03;;;0.82;;
26512;SDS011;14186;53.822;10.152;2023-01-05T13:46:38;2.80;;;0.70;;
26512;SDS011;14186;53.822;10.152;2023-01-05T13:51:51;3.50;;;0.65;;
26512;SDS011;14186;53.822;10.152;2023-01-05T13:56:51;4.00;;;0.70;;
26512;SDS011;14186;53.822;10.152;2023-01-05T14:01:52;4.38;;;0.90;;
26512;SDS011;14186;53.822;10.152;2023-01-05T14:06:55;3.08;;;0.52;;
26512;SDS011;14186;53.822;10.152;2023-01-05T14:12:22;2.67;;;0.57;;
26512;SDS011;14186;53.822;10.152;2023-01-05T14:22:39;4.20;;;0.95;;
26512;SDS011;14186;53.822;10.152;2023-01-05T14:28:14;2.72;;;0.50;;
26512;SDS011;14186;53.822;10.152;2023-01-05T14:33:07;11.68;;;0.70;;
26512;SDS011;14186;53.822;10.152;2023-01-05T14:38:14;3.55;;;0.45;;
26512;SDS011;14186;53.822;10.152;2023-01-05T14:43:19;3.92;;;0.68;;
26512;SDS011;14186;53.822;10.152;2023-01-05T14:48:25;4.43;;;0.75;;
26512;SDS011;14186;53.822;10.152;2023-01-05T14:53:40;5.78;;;1.20;;
26512;SDS011;14186;53.822;10.152;2023-01-05T15:04:03;6.55;;;1.00;;
26512;SDS011;14186;53.822;10.152;2023-01-05T15:14:34;8.00;;;1.15;;
26512;SDS011;14186;53.822;10.152;2023-01-05T15:19:42;9.35;;;2.35;;
26512;SDS011;14186;53.822;10.152;2023-01-05T15:24:52;6.97;;;1.80;;
26512;SDS011;14186;53.822;10.152;2023-01-05T15:30:03;5.90;;;1.05;;
26512;SDS011;14186;53.822;10.152;2023-01-05T15:35:10;7.63;;;1.10;;
26512;SDS011;14186;53.822;10.152;2023-01-05T15:40:25;6.38;;;0.98;;
26512;SDS011;14186;53.822;10.152;2023-01-05T15:45:29;5.97;;;0.57;;
26512;SDS011;14186;53.822;10.152;2023-01-05T15:50:31;12.50;;;3.53;;
26512;SDS011;14186;53.822;10.152;2023-01-05T15:55:33;13.65;;;4.72;;
26512;SDS011;14186;53.822;10.152;2023-01-05T16:00:34;6.28;;;2.83;;
26512;SDS011;14186;53.822;10.152;2023-01-05T16:05:35;9.75;;;2.97;;
26512;SDS011;14186;53.822;10.152;2023-01-05T16:10:36;10.15;;;1.95;;
26512;SDS011;14186;53.822;10.152;2023-01-05T16:15:38;6.13;;;1.80;;
26512;SDS011;14186;53.822;10.152;2023-01-05T16:20:39;5.50;;;0.98;;
26512;SDS011;14186;53.822;10.152;2023-01-05T16:25:40;11.10;;;3.22;;
26512;SDS011;14186;53.822;10.152;2023-01-05T16:30:43;3.72;;;1.02;;
26512;SDS011;14186;53.822;10.152;2023-01-05T16:35:44;4.90;;;0.93;;
26512;SDS011;14186;53.822;10.152;2023-01-05T16:40:54;4.05;;;0.90;;
26512;SDS011;14186;53.822;10.152;2023-01-05T16:45:56;4.40;;;1.00;;
26512;SDS011;14186;53.822;10.152;2023-01-05T16:51:06;3.45;;;0.85;;
26512;SDS011;14186;53.822;10.152;2023-01-05T16:56:16;6.70;;;0.70;;
26512;SDS011;14186;53.822;10.152;2023-01-05T17:01:22;4.78;;;0.63;;
26512;SDS011;14186;53.822;10.152;2023-01-05T17:06:24;5.82;;;0.75;;
26512;SDS011;14186;53.822;10.152;2023-01-05T17:11:25;6.70;;;0.90;;
26512;SDS011;14186;53.822;10.152;2023-01-05T17:16:28;5.38;;;0.80;;
26512;SDS011;14186;53.822;10.152;2023-01-05T17:21:28;8.48;;;1.92;;
26512;SDS011;14186;53.822;10.152;2023-01-05T17:26:31;33.83;;;9.32;;
26512;SDS011;14186;53.822;10.152;2023-01-05T17:31:34;15.57;;;4.93;;
26512;SDS011;14186;53.822;10.152;2023-01-05T17:36:34;20.48;;;9.90;;
26512;SDS011;14186;53.822;10.152;2023-01-05T17:41:35;15.45;;;3.70;;
26512;SDS011;14186;53.822;10.152;2023-01-05T17:46:37;6.53;;;2.40;;
26512;SDS011;14186;53.822;10.152;2023-01-05T17:51:37;9.80;;;1.73;;
26512;SDS011;14186;53.822;10.152;2023-01-05T17:56:37;4.63;;;1.42;;
26512;SDS011;14186;53.822;10.152;2023-01-05T18:01:39;7.78;;;1.58;;
26512;SDS011;14186;53.822;10.152;2023-01-05T18:06:39;7.13;;;1.23;;
26512;SDS011;14186;53.822;10.152;2023-01-05T18:11:39;7.28;;;1.75;;
26512;SDS011;14186;53.822;10.152;2023-01-05T18:16:41;10.52;;;1.98;;
26512;SDS011;14186;53.822;10.152;2023-01-05T18:21:41;5.55;;;2.30;;
26512;SDS011;14186;53.822;10.152;2023-01-05T18:26:41;11.32;;;2.25;;
26512;SDS011;14186;53.822;10.152;2023-01-05T18:31:43;15.07;;;2.70;;
26512;SDS011;14186;53.822;10.152;2023-01-05T18:36:43;8.70;;;2.63;;
26512;SDS011;14186;53.822;10.152;2023-01-05T18:41:43;6.47;;;2.13;;
26512;SDS011;14186;53.822;10.152;2023-01-05T18:46:45;10.07;;;2.45;;
26512;SDS011;14186;53.822;10.152;2023-01-05T18:51:45;6.53;;;2.67;;
26512;SDS011;14186;53.822;10.152;2023-01-05T18:56:48;9.02;;;3.28;;
26512;SDS011;14186;53.822;10.152;2023-01-05T19:01:50;9.73;;;3.50;;
26512;SDS011;14186;53.822;10.152;2023-01-05T19:06:50;19.52;;;5.03;;
26512;SDS011;14186;53.822;10.152;2023-01-05T19:11:50;9.02;;;4.50;;
26512;SDS011;14186;53.822;10.152;2023-01-05T19:16:51;28.55;;;6.15;;
26512;SDS011;14186;53.822;10.152;2023-01-05T19:21:52;17.00;;;5.35;;
26512;SDS011;14186;53.822;10.152;2023-01-05T19:26:52;25.17;;;11.00;;
26512;SDS011;14186;53.822;10.152;2023-01-05T19:31:53;22.80;;;9.43;;
26512;SDS011;14186;53.822;10.152;2023-01-05T19:36:53;12.48;;;5.32;;
26512;SDS011;14186;53.822;10.152;2023-01-05T19:41:54;12.88;;;4.32;;
26512;SDS011;14186;53.822;10.152;2023-01-05T19:46:55;9.38;;;3.28;;
26512;SDS011;14186;53.822;10.152;2023-01-05T19:51:55;10.95;;;3.20;;
26512;SDS011;14186;53.822;10.152;2023-01-05T19:56:56;13.90;;;4.25;;
26512;SDS011;14186;53.822;10.152;2023-01-05T20:01:57;15.02;;;4.75;;
26512;SDS011;14186;53.822;10.152;2023-01-05T20:06:57;11.43;;;5.55;;
26512;SDS011;14186;53.822;10.152;2023-01-05T20:11:57;14.25;;;6.65;;
26512;SDS011;14186;53.822;10.152;2023-01-05T20:17:00;29.42;;;8.85;;
26512;SDS011;14186;53.822;10.152;2023-01-05T20:22:01;13.85;;;4.65;;
26512;SDS011;14186;53.822;10.152;2023-01-05T20:27:02;14.40;;;5.90;;
26512;SDS011;14186;53.822;10.152;2023-01-05T20:32:05;10.23;;;4.97;;
26512;SDS011;14186;53.822;10.152;2023-01-05T20:37:06;10.85;;;5.60;;
26512;SDS011;14186;53.822;10.152;2023-01-05T20:42:06;21.17;;;6.35;;
26512;SDS011;14186;53.822;10.152;2023-01-05T20:47:08;27.00;;;9.25;;
26512;SDS011;14186;53.822;10.152;2023-01-05T20:52:09;28.92;;;11.00;;
26512;SDS011;14186;53.822;10.152;2023-01-05T20:57:09;21.60;;;8.85;;
26512;SDS011;14186;53.822;10.152;2023-01-05T21:02:11;18.45;;;6.10;;
26512;SDS011;14186;53.822;10.152;2023-01-05T21:07:11;19.45;;;7.78;;
26512;SDS011;14186;53.822;10.152;2023-01-05T21:12:11;15.15;;;6.13;;
26512;SDS011;14186;53.822;10.152;2023-01-05T21:17:13;18.33;;;4.55;;
26512;SDS011;14186;53.822;10.152;2023-01-05T21:22:13;11.77;;;5.63;;
26512;SDS011;14186;53.822;10.152;2023-01-05T21:27:13;11.43;;;4.43;;
26512;SDS011;14186;53.822;10.152;2023-01-05T21:32:15;16.23;;;4.82;;
26512;SDS011;14186;53.822;10.152;2023-01-05T21:37:15;16.83;;;4.47;;
26512;SDS011;14186;53.822;10.152;2023-01-05T21:42:15;18.30;;;4.60;;
26512;SDS011;14186;53.822;10.152;2023-01-05T21:47:16;14.35;;;4.90;;
26512;SDS011;14186;53.822;10.152;2023-01-05T21:52:17;17.42;;;5.15;;
26512;SDS011;14186;53.822;10.152;2023-01-05T21:57:17;16.95;;;4.75;;
26512;SDS011;14186;53.822;10.152;2023-01-05T22:02:19;15.15;;;5.57;;
26512;SDS011;14186;53.822;10.152;2023-01-05T22:07:19;20.48;;;5.60;;
26512;SDS011;14186;53.822;10.152;2023-01-05T22:12:19;16.50;;;5.90;;
26512;SDS011;14186;53.822;10.152;2023-01-05T22:17:20;16.27;;;5.68;;
26512;SDS011;14186;53.822;10.152;2023-01-05T22:22:21;28.25;;;7.38;;
26512;SDS011;14186;53.822;10.152;2023-01-05T22:27:21;14.93;;;5.72;;
26512;SDS011;14186;53.822;10.152;2023-01-05T22:32:23;16.85;;;5.72;;
26512;SDS011;14186;53.822;10.152;2023-01-05T22:37:23;13.25;;;6.28;;
26512;SDS011;14186;53.822;10.152;2023-01-05T22:42:23;17.77;;;5.32;;
26512;SDS011;14186;53.822;10.152;2023-01-05T22:47:24;16.58;;;5.15;;
26512;SDS011;14186;53.822;10.152;2023-01-05T22:52:25;15.07;;;5.53;;
26512;SDS011;14186;53.822;10.152;2023-01-05T22:57:25;18.30;;;5.88;;
26512;SDS011;14186;53.822;10.152;2023-01-05T23:02:26;15.88;;;5.82;;
26512;SDS011;14186;53.822;10.152;2023-01-05T23:07:26;17.05;;;6.45;;
26512;SDS011;14186;53.822;10.152;2023-01-05T23:12:27;18.45;;;6.00;;
26512;SDS011;14186;53.822;10.152;2023-01-05T23:17:28;13.63;;;5.40;;
26512;SDS011;14186;53.822;10.152;2023-01-05T23:22:28;13.95;;;4.93;;
26512;SDS011;14186;53.822;10.152;2023-01-05T23:27:28;18.85;;;4.80;;
26512;SDS011;14186;53.822;10.152;2023-01-05T23:32:30;12.93;;;4.28;;
26512;SDS011;14186;53.822;10.152;2023-01-05T23:37:30;14.32;;;4.80;;
26512;SDS011;14186;53.822;10.152;2023-01-05T23:42:30;14.27;;;3.72;;
26512;SDS011;14186;53.822;10.152;2023-01-05T23:47:32;8.80;;;3.17;;
26512;SDS011;14186;53.822;10.152;2023-01-05T23:52:32;12.27;;;3.10;;
26512;SDS011;14186;53.822;10.152;2023-01-05T23:57:32;11.50;;;3.38;;
